Time;durP1;ratioP1;P1;durP2;ratioP2;P2;SDS_P1;SDS_P2;PMS_P1;PMS_P2;Temp;Humidity;BMP_temperature;BMP_pressure;BME280_temperature;BME280_humidity;BME280_pressure;Samples;Min_cycle;Max_cycle;Signal;HPM_P1;HPM_P2
2022/05/26 00:01:16;;;;;;;5.80;2.10;;;;;;;15.17;70.05;92884.38;4990013;28;20041;-75
2022/05/26 00:03:44;;;;;;;3.67;1.80;;;;;;;15.10;69.84;92884.81;4978054;28;20084;-75
2022/05/26 00:06:13;;;;;;;4.05;1.65;;;;;;;15.02;69.90;92880.31;5009894;28;20026;-75
2022/05/26 00:08:40;;;;;;;5.00;1.70;;;;;;;14.99;67.04;92883.53;5011515;28;20049;-76
2022/05/26 00:11:09;;;;;;;2.70;1.55;;;;;;;14.96;66.33;92881.53;4987537;28;20057;-75
2022/05/26 00:13:35;;;;;;;2.97;1.60;;;;;;;14.91;67.86;92887.69;5010899;28;20041;-76
2022/05/26 00:16:02;;;;;;;4.32;1.60;;;;;;;14.88;67.37;92882.25;5008538;28;20041;-75
2022/05/26 00:18:27;;;;;;;8.90;1.60;;;;;;;14.85;67.23;92888.13;5011762;28;20054;-75
2022/05/26 00:20:53;;;;;;;6.00;1.65;;;;;;;14.82;69.21;92884.25;4976731;28;20034;-75
2022/05/26 00:23:19;;;;;;;3.33;1.70;;;;;;;14.78;67.24;92881.41;5011153;28;20530;-75
2022/05/26 00:25:46;;;;;;;3.55;1.77;;;;;;;14.72;67.35;92880.00;4974525;28;20092;-76
2022/05/26 00:28:11;;;;;;;3.65;1.63;;;;;;;14.66;69.01;92883.03;5008403;28;20034;-75
2022/05/26 00:30:39;;;;;;;2.80;1.40;;;;;;;14.70;60.86;92882.16;5009370;28;20488;-76
2022/05/26 00:33:07;;;;;;;6.22;1.65;;;;;;;14.75;60.90;92886.53;4993245;28;20040;-75
2022/05/26 00:35:35;;;;;;;6.38;1.83;;;;;;;14.75;65.67;92882.03;4973916;28;20489;-76
2022/05/26 00:38:03;;;;;;;3.78;1.98;;;;;;;14.74;66.37;92884.97;5008302;28;20046;-75
2022/05/26 00:40:29;;;;;;;2.97;1.50;;;;;;;14.76;62.10;92875.66;4991533;28;20026;-75
2022/05/26 00:42:54;;;;;;;2.40;1.30;;;;;;;14.90;58.01;92878.22;4997304;28;20179;-75
2022/05/26 00:45:20;;;;;;;2.97;1.70;;;;;;;14.92;61.70;92870.03;5019687;28;20034;-75
2022/05/26 00:47:47;;;;;;;6.07;1.80;;;;;;;14.82;63.74;92865.78;4996326;28;20150;-76
2022/05/26 00:50:12;;;;;;;4.18;1.60;;;;;;;14.70;65.18;92881.38;4976136;28;20051;-75
2022/05/26 00:53:24;;;;;;;7.75;1.90;;;;;;;14.54;66.65;92879.09;5010874;28;20430;-76
2022/05/26 00:55:57;;;;;;;4.13;1.70;;;;;;;14.41;65.39;92879.16;5005471;28;20058;-75
2022/05/26 00:58:30;;;;;;;4.90;1.80;;;;;;;14.26;66.08;92870.53;4975045;28;20077;-75
2022/05/26 01:00:59;;;;;;;4.75;1.60;;;;;;;14.18;66.46;92883.63;4982015;28;20115;-76
2022/05/26 01:03:30;;;;;;;4.82;1.70;;;;;;;14.09;67.40;92886.19;4998281;28;20025;-75
2022/05/26 01:06:41;;;;;;;4.28;1.50;;;;;;;14.00;67.76;92882.72;4966191;28;20026;-75
2022/05/26 01:09:06;;;;;;;3.67;1.60;;;;;;;14.11;66.93;92870.88;4980371;28;20100;-75
2022/05/26 01:11:36;;;;;;;2.90;1.50;;;;;;;14.03;67.34;92876.88;5010205;28;20034;-75
2022/05/26 01:14:09;;;;;;;4.85;1.75;;;;;;;13.99;67.69;92875.91;5010213;28;20033;-75
2022/05/26 01:16:54;;;;;;;5.53;1.83;;;;;;;13.91;67.38;92875.50;5000165;28;20396;-75
2022/05/26 01:19:39;;;;;;;3.60;1.63;;;;;;;13.88;67.86;92870.84;4991011;28;20331;-75
2022/05/26 01:22:35;;;;;;;5.70;1.73;;;;;;;13.89;68.65;92869.78;4991402;28;20099;-75
2022/05/26 01:25:05;;;;;;;5.63;1.50;;;;;;;13.94;65.16;92866.28;5009430;28;20022;-74
2022/05/26 01:27:35;;;;;;;3.05;1.40;;;;;;;14.06;62.80;92863.09;4985622;28;20441;-75
2022/05/26 01:30:23;;;;;;;4.53;1.48;;;;;;;14.11;62.92;92868.25;4980543;28;20472;-75
2022/05/26 01:33:26;;;;;;;7.22;1.40;;;;;;;14.25;61.24;92869.00;5007737;28;20120;-75
2022/05/26 01:36:05;;;;;;;;;;;;;;;14.32;59.59;92864.09;4980474;28;20649;-75
2022/05/26 01:38:48;;;;;;;3.67;1.45;;;;;;;14.42;58.66;92863.06;5004648;28;19918;-75
2022/05/26 01:41:43;;;;;;;4.85;1.40;;;;;;;14.45;59.07;92869.56;5004120;28;20046;-75
2022/05/26 01:44:28;;;;;;;4.07;1.20;;;;;;;14.46;58.39;92865.88;5005783;28;20026;-75
2022/05/26 01:46:58;;;;;;;5.80;2.30;;;;;;;14.54;57.37;92865.94;5005107;28;20431;-75
2022/05/26 01:49:45;;;;;;;2.50;1.30;;;;;;;14.67;56.48;92866.94;5010466;28;20515;-75
2022/05/26 01:52:29;;;;;;;5.63;1.40;;;;;;;14.81;55.50;92863.44;5002607;28;20473;-75
2022/05/26 01:55:13;;;;;;;4.32;1.23;;;;;;;14.82;55.96;92871.06;4973373;28;20031;-75
2022/05/26 01:58:04;;;;;;;3.20;1.35;;;;;;;14.84;55.27;92862.84;4999999;28;20034;-75
2022/05/26 02:00:31;;;;;;;10.80;1.50;;;;;;;14.87;55.49;92868.28;5005994;28;20380;-75
2022/05/26 02:03:11;;;;;;;3.08;1.40;;;;;;;14.96;54.80;92871.75;4992204;28;20041;-75
2022/05/26 02:05:45;;;;;;;3.05;1.30;;;;;;;15.13;53.81;92871.06;4992472;28;20073;-75
2022/05/26 02:08:26;;;;;;;7.88;1.40;;;;;;;15.04;54.78;92870.25;5008501;28;20102;-75
2022/05/26 02:11:01;;;;;;;5.20;1.42;;;;;;;14.95;55.32;92872.03;5004504;28;20447;-75
2022/05/26 02:13:33;;;;;;;2.78;1.50;;;;;;;14.93;55.09;92855.78;5013373;28;20666;-75
2022/05/26 02:16:28;;;;;;;2.90;1.37;;;;;;;14.92;55.50;92865.53;4994925;28;20034;-75
2022/05/26 02:19:02;;;;;;;10.45;1.98;;;;;;;14.92;55.48;92856.84;5005105;28;20034;-75
2022/05/26 02:21:38;;;;;;;7.32;1.45;;;;;;;14.88;55.98;92864.59;4984601;28;20118;-75
2022/05/26 02:24:17;;;;;;;5.45;1.45;;;;;;;14.90;55.66;92865.03;5013011;28;20034;-76
2022/05/26 02:26:43;;;;;;;5.20;1.63;;;;;;;14.90;55.38;92866.91;5014202;28;20121;-75
2022/05/26 02:31:54;;;;;;;3.60;1.60;;;;;;;14.84;60.08;92855.72;5002570;28;20045;-75
2022/05/26 02:34:22;;;;;;;2.53;1.38;;;;;;;14.74;59.92;92863.88;4979598;28;20042;-75
2022/05/26 02:36:53;;;;;;;2.92;1.38;;;;;;;14.64;58.63;92862.28;5012989;28;20037;-76
2022/05/26 02:39:18;;;;;;;4.25;1.27;;;;;;;14.57;59.67;92865.34;5010681;28;20534;-75
2022/05/26 02:41:44;;;;;;;4.50;1.25;;;;;;;14.46;60.39;92864.00;4994926;28;20034;-76
2022/05/26 02:44:10;;;;;;;4.03;1.30;;;;;;;14.34;61.28;92867.19;4997595;28;20168;-75
2022/05/26 02:47:28;;;;;;;4.45;1.50;;;;;;;14.24;62.42;92867.41;4977778;28;20160;-76
2022/05/26 02:50:15;;;;;;;4.57;1.50;;;;;;;14.13;63.04;92872.13;4940075;28;20390;-75
2022/05/26 02:52:53;;;;;;;4.07;1.50;;;;;;;13.99;64.13;92873.28;4994385;28;20408;-75
2022/05/26 02:55:32;;;;;;;5.10;1.40;;;;;;;13.85;65.09;92878.56;5013065;28;20129;-75
2022/05/26 02:58:39;;;;;;;4.43;1.60;;;;;;;13.73;66.03;92881.69;5013005;28;20657;-75
2022/05/26 03:01:32;;;;;;;3.20;1.65;;;;;;;13.67;66.95;92877.63;5009147;28;20057;-76
2022/05/26 03:04:17;;;;;;;7.50;2.00;;;;;;;13.64;68.96;92883.47;5012411;28;20551;-76
2022/05/26 03:06:52;;;;;;;5.60;2.00;;;;;;;13.64;70.37;92894.00;5011770;28;20038;-75
2022/05/26 03:09:20;;;;;;;7.68;2.10;;;;;;;13.71;72.13;92889.09;5010868;28;20487;-75
2022/05/26 03:11:56;;;;;;;7.32;2.28;;;;;;;13.62;72.92;92898.75;4993441;28;20506;-75
2022/05/26 03:14:21;;;;;;;8.43;2.17;;;;;;;13.53;73.25;92894.22;4993390;28;20523;-75
2022/05/26 03:16:48;;;;;;;4.90;2.10;;;;;;;13.56;72.04;92892.06;4977593;28;20045;-76
2022/05/26 03:19:14;;;;;;;6.00;1.70;;;;;;;13.48;72.89;92891.66;5007012;28;20034;-75
2022/05/26 03:21:40;;;;;;;7.35;1.90;;;;;;;13.41;72.26;92888.66;5006515;28;20045;-75
2022/05/26 03:24:06;;;;;;;3.33;1.63;;;;;;;13.33;71.29;92887.50;5011565;28;20021;-75
2022/05/26 03:26:32;;;;;;;5.78;1.70;;;;;;;13.25;70.45;92896.03;5007974;28;20044;-75
2022/05/26 03:28:58;;;;;;;5.47;1.63;;;;;;;13.18;71.51;92903.53;5010163;28;20029;-75
2022/05/26 03:31:24;;;;;;;3.85;1.48;;;;;;;13.10;72.14;92896.31;5012130;28;20514;-75
2022/05/26 03:42:06;;;;;;;7.20;2.58;;;;;;;12.85;74.59;92894.94;5012537;28;20068;-75
2022/05/26 03:44:34;;;;;;;4.78;1.73;;;;;;;12.86;74.65;92899.13;4976238;28;20021;-75
2022/05/26 03:47:00;;;;;;;7.45;1.88;;;;;;;12.85;76.21;92894.94;4979661;28;20052;-75
2022/05/26 03:49:26;;;;;;;7.78;1.70;;;;;;;12.81;77.38;92896.56;5010714;28;20041;-75
2022/05/26 03:51:52;;;;;;;12.48;2.22;;;;;;;12.81;77.43;92904.44;4994971;28;20319;-75
2022/05/26 03:54:18;;;;;;;3.38;1.73;;;;;;;12.79;77.49;92904.75;4991780;28;20377;-75
2022/05/26 03:56:43;;;;;;;4.00;1.90;;;;;;;12.77;77.28;92908.75;5011572;28;20435;-75
2022/05/26 03:59:09;;;;;;;3.08;1.73;;;;;;;12.79;76.92;92909.22;4969919;28;20030;-75
2022/05/26 04:01:35;;;;;;;6.43;1.73;;;;;;;12.81;76.66;92909.69;4976159;28;20042;-75
2022/05/26 04:04:01;;;;;;;5.50;1.70;;;;;;;12.82;76.15;92906.78;5010112;28;20129;-76
2022/05/26 04:06:27;;;;;;;9.27;1.83;;;;;;;12.82;74.98;92904.16;5011070;28;20068;-75
2022/05/26 04:08:54;;;;;;;5.05;1.50;;;;;;;12.85;73.61;92900.19;5008508;28;20049;-75
2022/05/26 04:11:23;;;;;;;5.75;1.50;;;;;;;13.05;68.50;92912.94;5006877;28;20041;-75
2022/05/26 04:13:51;;;;;;;3.28;1.50;;;;;;;13.20;68.43;92905.88;5004881;28;20046;-75
2022/05/26 04:16:17;;;;;;;2.83;1.50;;;;;;;13.24;69.56;92912.09;5003825;28;20148;-75
2022/05/26 04:18:43;;;;;;;5.50;1.55;;;;;;;13.21;70.56;92920.56;5007501;28;20026;-75
2022/05/26 04:21:11;;;;;;;7.07;1.60;;;;;;;13.16;72.19;92923.28;4986217;28;20042;-76
2022/05/26 04:23:37;;;;;;;5.93;1.42;;;;;;;13.12;72.66;92918.59;4991552;28;20495;-75
2022/05/26 04:26:05;;;;;;;6.72;1.60;;;;;;;13.13;72.67;92924.66;5010072;28;20116;-75
2022/05/26 04:28:31;;;;;;;3.17;1.50;;;;;;;13.12;73.15;92929.13;5010771;28;20038;-76
2022/05/26 04:30:57;;;;;;;4.65;1.60;;;;;;;13.12;73.16;92930.97;5010080;28;20112;-75
2022/05/26 04:33:23;;;;;;;3.47;1.40;;;;;;;13.16;72.79;92933.81;5011078;28;20160;-75
2022/05/26 04:35:49;;;;;;;2.70;1.60;;;;;;;13.18;72.88;92932.44;4989891;28;20132;-76
2022/05/26 04:38:14;;;;;;;6.63;1.60;;;;;;;13.25;71.82;92937.31;4993441;28;20187;-76
2022/05/26 04:40:40;;;;;;;2.88;1.50;;;;;;;13.30;70.75;92937.25;5005792;28;20033;-76
2022/05/26 04:43:07;;;;;;;6.35;1.73;;;;;;;13.36;71.50;92933.47;4986548;28;20348;-76
2022/05/26 04:45:32;;;;;;;5.88;1.77;;;;;;;13.41;72.05;92938.63;4969488;28;20451;-75
2022/05/26 04:47:58;;;;;;;3.42;1.50;;;;;;;13.42;72.81;92940.19;4989156;28;20030;-76
2022/05/26 04:50:24;;;;;;;12.85;1.65;;;;;;;13.47;73.01;92950.59;4994947;28;20046;-75
2022/05/26 04:52:50;;;;;;;8.13;1.70;;;;;;;13.51;73.05;92940.28;5001605;28;20400;-76
2022/05/26 04:55:17;;;;;;;2.65;1.50;;;;;;;13.57;72.57;92939.09;5001142;28;20133;-77
2022/05/26 04:57:43;;;;;;;5.53;1.52;;;;;;;13.63;72.62;92948.47;5003285;28;20109;-76
2022/05/26 05:00:13;;;;;;;3.05;1.55;;;;;;;13.69;72.44;92942.03;4985944;28;20084;-77
2022/05/26 05:02:39;;;;;;;6.38;1.52;;;;;;;13.78;71.62;92944.75;4998422;28;20112;-77
2022/05/26 05:05:06;;;;;;;2.67;1.60;;;;;;;13.85;71.61;92954.88;4994889;28;20030;-77
2022/05/26 05:07:32;;;;;;;2.67;1.50;;;;;;;13.93;71.82;92948.91;5003276;28;20495;-77
2022/05/26 05:10:03;;;;;;;5.85;1.40;;;;;;;14.01;71.34;92942.97;5003225;28;20064;-77
2022/05/26 05:12:31;;;;;;;4.32;1.42;;;;;;;14.09;71.13;92944.09;4997391;28;20045;-77
2022/05/26 05:14:57;;;;;;;3.22;1.65;;;;;;;14.14;71.08;92936.13;4983362;28;20091;-77
2022/05/26 05:17:25;;;;;;;7.03;1.58;;;;;;;14.21;71.18;92939.13;4984669;28;20034;-77
2022/05/26 05:19:51;;;;;;;4.50;1.60;;;;;;;14.30;71.40;92944.47;5001707;28;20046;-76
2022/05/26 05:22:29;;;;;;;2.75;1.60;;;;;;;14.38;71.12;92946.38;4979744;28;20076;-77
2022/05/26 05:25:04;;;;;;;5.65;1.90;;;;;;;14.43;72.13;92953.38;4999256;28;20045;-77
2022/05/26 05:27:31;;;;;;;2.95;1.60;;;;;;;14.57;72.13;92960.19;4973885;28;20025;-77
2022/05/26 05:30:02;;;;;;;6.10;1.80;;;;;;;14.66;71.90;92955.00;5005193;28;20372;-77
2022/05/26 05:32:35;;;;;;;4.65;1.92;;;;;;;14.82;74.17;92957.25;5010605;28;20069;-77
2022/05/26 05:35:10;;;;;;;5.30;1.95;;;;;;;14.95;75.61;92951.91;5004731;28;20069;-77
2022/05/26 05:37:37;;;;;;;2.97;1.70;;;;;;;15.09;76.57;92954.47;4997251;28;20089;-77
2022/05/26 05:40:04;;;;;;;4.32;1.90;;;;;;;15.28;76.27;92956.88;4968818;28;20034;-77
2022/05/26 05:42:30;;;;;;;5.85;2.00;;;;;;;15.40;76.03;92966.84;4964654;28;20050;-77
2022/05/26 05:44:58;;;;;;;4.10;2.00;;;;;;;15.71;75.71;92966.84;4998236;28;20030;-77
2022/05/26 05:47:24;;;;;;;6.75;2.05;;;;;;;15.98;75.75;92973.75;5003832;28;20032;-77
2022/05/26 05:49:49;;;;;;;4.45;2.00;;;;;;;16.78;73.32;92981.47;5003888;28;20357;-77
2022/05/26 05:52:19;;;;;;;4.78;2.08;;;;;;;17.54;68.55;92969.50;4987300;28;20038;-77
2022/05/26 05:54:44;;;;;;;3.70;1.90;;;;;;;18.40;65.76;92970.19;5004387;28;20496;-77
2022/05/26 05:57:10;;;;;;;7.72;2.17;;;;;;;19.19;63.71;92978.28;5005630;28;20046;-77
2022/05/26 05:59:36;;;;;;;4.93;1.95;;;;;;;19.88;62.28;92974.13;4987180;28;20064;-77
2022/05/26 06:02:03;;;;;;;7.93;1.98;;;;;;;20.55;60.64;92973.81;5007332;28;20034;-78
2022/05/26 06:04:28;;;;;;;4.20;2.00;;;;;;;21.08;57.53;92979.13;4987026;28;20041;-77
2022/05/26 06:06:54;;;;;;;7.43;2.20;;;;;;;21.55;55.56;92979.22;4987730;28;20126;-75
2022/05/26 06:09:20;;;;;;;10.65;2.60;;;;;;;21.97;54.89;92988.59;4985098;28;20041;-75
2022/05/26 06:11:47;;;;;;;10.15;2.25;;;;;;;22.41;53.96;92980.50;4984304;28;20525;-75
2022/05/26 06:14:13;;;;;;;6.68;2.40;;;;;;;22.93;53.31;92983.84;5002287;28;20038;-75
2022/05/26 06:16:39;;;;;;;9.02;2.50;;;;;;;23.23;50.15;92992.84;4970782;28;20049;-78
2022/05/26 06:19:05;;;;;;;8.55;2.72;;;;;;;23.66;46.69;92996.31;4988545;28;20037;-75
2022/05/26 06:21:32;;;;;;;7.97;2.50;;;;;;;23.98;47.64;93003.34;5002699;28;20034;-74
2022/05/26 06:23:58;;;;;;;8.57;2.80;;;;;;;23.22;49.70;93014.59;5005702;28;20108;-77
2022/05/26 06:26:25;;;;;;;10.00;3.08;;;;;;;22.10;52.22;93014.03;4981294;28;20396;-77
2022/05/26 06:31:35;;;;;;;7.15;2.88;;;;;;;22.21;54.10;93020.44;4993938;28;20709;-77
2022/05/26 06:39:30;;;;;;;5.88;2.63;;;;;;;22.41;53.19;93031.16;4988450;28;20041;-77
2022/05/26 06:42:05;;;;;;;7.32;2.85;;;;;;;22.56;51.52;93025.03;5005478;28;20908;-77
2022/05/26 06:44:44;;;;;;;17.98;3.40;;;;;;;21.99;55.92;93034.34;4985554;28;20129;-77
2022/05/26 06:47:13;;;;;;;11.35;3.17;;;;;;;21.20;58.78;93033.06;4986480;28;20033;-77
2022/05/26 06:49:40;;;;;;;13.40;3.00;;;;;;;20.66;60.22;93043.31;5005347;28;21289;-77
2022/05/26 06:52:07;;;;;;;6.05;2.70;;;;;;;20.33;62.46;93039.66;4970483;28;20500;-77
2022/05/26 06:54:36;;;;;;;8.25;2.78;;;;;;;19.84;63.49;93038.88;5005324;28;20530;-77
2022/05/26 06:57:03;;;;;;;6.93;3.13;;;;;;;19.96;63.78;93038.88;5002972;28;20100;-77
2022/05/26 06:59:29;;;;;;;13.00;2.72;;;;;;;20.18;62.29;93043.75;5001510;28;20707;-77
2022/05/26 07:01:55;;;;;;;9.73;2.88;;;;;;;20.54;59.27;93039.53;4985647;28;20041;-77
2022/05/26 07:04:21;;;;;;;8.85;2.85;;;;;;;20.58;60.90;93047.66;5001683;28;20037;-77
2022/05/26 07:06:49;;;;;;;5.45;2.40;;;;;;;20.41;60.44;93047.84;4998574;28;20068;-77
2022/05/26 07:09:15;;;;;;;9.95;2.72;;;;;;;19.89;61.48;93049.28;5009087;28;20034;-75
2022/05/26 07:11:41;;;;;;;7.28;2.90;;;;;;;19.98;62.19;93051.84;4990926;28;20087;-77
2022/05/26 07:14:07;;;;;;;6.50;2.60;;;;;;;19.79;62.00;93052.34;5009283;28;20391;-77
2022/05/26 07:16:33;;;;;;;6.07;2.40;;;;;;;19.78;62.94;93058.78;5006725;28;20040;-77
2022/05/26 07:18:59;;;;;;;4.47;2.42;;;;;;;19.67;62.38;93069.00;4990186;28;20052;-77
2022/05/26 07:21:25;;;;;;;8.07;2.40;;;;;;;19.14;63.96;93071.38;4976123;28;20069;-77
2022/05/26 07:23:51;;;;;;;7.22;2.65;;;;;;;19.21;64.07;93070.84;4997154;28;20030;-77
2022/05/26 07:26:17;;;;;;;6.55;2.70;;;;;;;19.22;63.01;93075.81;4991151;28;20046;-77
2022/05/26 07:28:43;;;;;;;8.60;2.55;;;;;;;19.19;63.60;93076.47;5012830;28;20548;-77
2022/05/26 07:31:13;;;;;;;12.50;2.75;;;;;;;19.49;63.80;93076.38;4994188;28;20025;-77
2022/05/26 07:33:39;;;;;;;6.28;2.72;;;;;;;19.68;62.67;93084.63;5004461;28;20030;-78
2022/05/26 07:36:06;;;;;;;6.70;2.63;;;;;;;19.73;62.07;93081.78;4983743;28;20506;-77
2022/05/26 07:41:25;;;;;;;7.88;2.30;;;;;;;20.37;61.29;93083.06;4989902;28;20154;-80
2022/05/26 07:43:58;;;;;;;7.22;2.47;;;;;;;20.45;61.26;93072.69;4991322;28;20042;-77
2022/05/26 07:46:26;;;;;;;6.03;2.58;;;;;;;20.49;58.14;93084.97;4997966;28;20041;-77
2022/05/26 07:48:52;;;;;;;5.15;2.80;;;;;;;20.71;58.59;93080.31;4967941;28;20512;-76
2022/05/26 07:51:21;;;;;;;6.25;2.60;;;;;;;20.61;60.01;93092.19;5007023;28;20124;-77
2022/05/26 07:53:47;;;;;;;4.00;2.30;;;;;;;20.62;59.49;93092.97;5002755;28;20053;-76
2022/05/26 07:56:13;;;;;;;5.68;2.30;;;;;;;20.34;59.58;93097.03;4984851;28;20117;-77
2022/05/26 07:58:39;;;;;;;6.65;2.20;;;;;;;20.12;60.99;93097.47;5015557;28;20040;-76
2022/05/26 08:01:07;;;;;;;4.18;2.30;;;;;;;20.27;58.86;93099.47;4998780;28;20034;-77
2022/05/26 08:03:34;;;;;;;6.18;2.50;;;;;;;20.25;59.14;93100.91;5006451;28;20093;-77
2022/05/26 08:06:01;;;;;;;6.00;2.55;;;;;;;20.31;58.66;93108.34;4999641;28;20042;-75
2022/05/26 08:08:31;;;;;;;7.55;2.47;;;;;;;20.40;58.94;93105.59;5009335;28;20058;-76
2022/05/26 08:10:56;;;;;;;9.18;2.40;;;;;;;20.36;59.05;93116.09;4986388;28;20133;-76
2022/05/26 08:13:22;;;;;;;9.32;2.47;;;;;;;20.43;57.72;93115.53;4977759;28;20046;-76
2022/05/26 08:15:49;;;;;;;4.40;2.33;;;;;;;20.36;57.30;93120.63;5002464;28;20491;-75
2022/05/26 08:18:16;;;;;;;4.20;2.22;;;;;;;20.22;58.67;93122.81;5000765;28;20038;-75
2022/05/26 08:20:41;;;;;;;5.10;2.28;;;;;;;20.47;58.06;93127.06;4981159;28;20109;-75
2022/05/26 08:23:07;;;;;;;9.13;2.42;;;;;;;20.58;56.40;93119.47;4988596;28;20461;-75
2022/05/26 08:25:34;;;;;;;6.65;2.55;;;;;;;20.58;58.13;93124.78;4996313;28;20022;-76
2022/05/26 08:27:59;;;;;;;5.20;2.60;;;;;;;20.68;56.74;93134.19;5012395;28;20038;-76
2022/05/26 08:30:27;;;;;;;7.80;2.50;;;;;;;20.57;54.44;93129.31;5012268;28;20537;-75
2022/05/26 08:32:54;;;;;;;17.42;4.00;;;;;;;20.66;53.50;93128.44;5012087;28;20034;-74
2022/05/26 08:35:21;;;;;;;4.43;2.40;;;;;;;20.87;52.67;93130.94;5011772;28;20042;-75
2022/05/26 08:37:47;;;;;;;6.53;2.45;;;;;;;21.09;54.24;93127.03;4993894;28;20503;-75
2022/05/26 08:40:34;;;;;;;4.97;2.38;;;;;;;21.12;51.06;93134.34;4962044;28;20091;-75
2022/05/26 08:43:02;;;;;;;9.77;2.42;;;;;;;20.93;54.60;93134.94;4995995;28;20073;-75
2022/05/26 08:45:32;;;;;;;5.47;2.50;;;;;;;21.11;54.45;93125.59;5011947;28;20057;-75
2022/05/26 08:47:57;;;;;;;4.60;2.42;;;;;;;21.14;52.62;93129.47;5012507;28;20049;-75
2022/05/26 08:50:34;;;;;;;4.22;2.30;;;;;;;21.02;53.13;93137.47;4994664;28;20080;-75
2022/05/26 08:53:08;;;;;;;7.30;2.60;;;;;;;21.11;51.71;93127.47;5011770;28;20048;-75
2022/05/26 08:55:44;;;;;;;6.22;2.38;;;;;;;20.93;53.06;93141.03;4992147;28;20499;-75
2022/05/26 08:58:27;;;;;;;6.32;2.80;;;;;;;20.89;55.52;93140.16;4994303;28;20037;-75
2022/05/26 09:00:54;;;;;;;5.72;2.47;;;;;;;21.06;55.10;93141.03;4994320;28;20120;-75
2022/05/26 09:03:28;;;;;;;8.48;2.92;;;;;;;21.22;54.54;93141.88;5011633;28;20087;-75
2022/05/26 09:06:07;;;;;;;11.70;2.88;;;;;;;21.21;53.13;93149.09;4993937;28;20041;-75
2022/05/26 09:14:33;;;;;;;5.78;2.88;;;;;;;21.47;53.64;93147.16;5011014;28;20503;-75
2022/05/26 09:17:06;;;;;;;4.82;2.55;;;;;;;21.47;54.70;93157.81;5008984;28;20038;-75
2022/05/26 09:19:46;;;;;;;5.40;2.75;;;;;;;21.58;55.81;93158.91;4994139;28;20084;-75
2022/05/26 09:22:40;;;;;;;7.47;3.40;;;;;;;21.53;54.43;93156.50;5014461;28;20037;-74
2022/05/26 09:25:12;;;;;;;10.18;3.97;;;;;;;21.31;55.89;93158.50;5000182;28;20049;-75
2022/05/26 09:27:39;;;;;;;7.28;3.22;;;;;;;21.27;56.88;93152.28;5017931;28;20038;-75
2022/05/26 09:30:23;;;;;;;11.95;3.60;;;;;;;21.41;56.69;93160.72;5000382;28;20408;-75
2022/05/26 09:32:49;;;;;;;6.63;3.22;;;;;;;21.62;58.21;93162.44;5018002;28;20113;-75
2022/05/26 09:35:23;;;;;;;6.43;3.90;;;;;;;21.50;56.78;93167.78;5000243;28;20136;-74
2022/05/26 09:37:55;;;;;;;8.40;4.45;;;;;;;21.48;56.23;93172.69;4997049;28;20081;-75
2022/05/26 09:40:34;;;;;;;6.95;3.95;;;;;;;21.68;58.32;93177.06;4997061;28;20034;-75
2022/05/26 09:43:06;;;;;;;8.77;4.50;;;;;;;21.57;57.71;93175.97;4997230;28;20038;-75
2022/05/26 09:45:42;;;;;;;7.97;5.20;;;;;;;21.64;56.76;93184.19;4996632;28;20030;-75
2022/05/26 09:48:18;;;;;;;9.55;3.22;;;;;;;21.53;55.25;93175.13;4996726;28;20038;-75
2022/05/26 09:50:49;;;;;;;8.50;4.78;;;;;;;21.57;57.99;93176.78;4998117;28;20354;-74
2022/05/26 09:53:28;;;;;;;10.45;4.80;;;;;;;21.71;56.31;93181.72;4997910;28;20535;-75
2022/05/26 09:55:55;;;;;;;11.35;5.07;;;;;;;21.75;56.46;93185.28;4996618;28;20038;-75
2022/05/26 09:58:28;;;;;;;11.77;4.85;;;;;;;22.10;55.00;93178.56;4997717;28;20040;-75
2022/05/26 10:00:57;;;;;;;6.07;3.28;;;;;;;22.24;55.03;93185.06;4997797;28;20121;-75
2022/05/26 10:03:44;;;;;;;5.43;3.10;;;;;;;22.09;51.05;93188.47;4997900;28;20038;-76
2022/05/26 10:06:31;;;;;;;11.00;5.00;;;;;;;22.17;56.46;93187.50;4997770;28;20042;-74
2022/05/26 10:09:36;;;;;;;13.65;4.75;;;;;;;22.16;53.27;93185.19;4997943;28;20030;-74
2022/05/26 10:12:23;;;;;;;12.32;5.22;;;;;;;22.29;54.18;93191.25;4996191;28;20558;-75
2022/05/26 10:15:01;;;;;;;10.98;5.05;;;;;;;22.52;53.04;93180.81;4997266;28;20469;-76
2022/05/26 10:17:56;;;;;;;9.10;4.97;;;;;;;22.65;53.01;93183.03;4990513;28;20057;-76
2022/05/26 10:20:33;;;;;;;13.77;5.32;;;;;;;22.68;54.24;93186.91;4997978;28;20038;-76
2022/05/26 10:23:14;;;;;;;10.68;6.55;;;;;;;22.52;53.86;93181.56;4997871;28;20500;-76
2022/05/26 10:26:16;;;;;;;11.73;5.82;;;;;;;22.57;57.04;93181.31;4997710;28;20022;-76
2022/05/26 10:28:58;;;;;;;14.35;6.13;;;;;;;22.66;54.58;93186.47;5002419;28;20030;-76
2022/05/26 10:31:59;;;;;;;14.18;6.25;;;;;;;22.87;53.12;93184.31;4997612;28;20489;-76
2022/05/26 10:34:58;;;;;;;12.00;5.72;;;;;;;23.00;55.71;93181.56;4994475;28;20468;-76
2022/05/26 10:37:42;;;;;;;10.75;6.25;;;;;;;22.76;55.10;93183.28;4997485;28;20049;-76
2022/05/26 10:40:27;;;;;;;10.45;5.75;;;;;;;22.62;54.18;93189.03;5013977;28;20025;-76
2022/05/26 10:42:56;;;;;;;10.23;5.68;;;;;;;22.76;53.62;93187.84;5013423;28;20037;-76
2022/05/26 10:45:38;;;;;;;13.32;5.45;;;;;;;22.79;55.04;93193.28;5009370;28;20061;-76
2022/05/26 10:48:12;;;;;;;;;;;;;;;22.85;54.35;93196.44;4996984;28;20107;-76
2022/05/26 10:50:51;;;;;;;15.73;6.22;;;;;;;22.82;54.40;93178.47;5013873;28;20383;-76
2022/05/26 10:53:16;;;;;;;8.90;4.30;;;;;;;22.52;51.47;93188.81;5013663;28;20160;-76
2022/05/26 10:55:54;;;;;;;11.20;5.10;;;;;;;22.64;53.46;93180.72;5013707;28;20112;-75
2022/05/26 10:58:32;;;;;;;7.97;4.50;;;;;;;22.85;53.59;93181.22;5013704;28;20080;-76
2022/05/26 11:01:06;;;;;;;14.93;8.10;;;;;;;22.83;51.87;93178.13;4995988;28;20519;-76
2022/05/26 11:03:37;;;;;;;14.68;6.05;;;;;;;22.62;55.41;93182.94;5013339;28;20041;-76
2022/05/26 11:06:08;;;;;;;13.90;7.22;;;;;;;22.77;54.86;93194.75;4995580;28;20038;-76
2022/05/26 11:09:07;;;;;;;11.02;5.35;;;;;;;22.75;53.18;93189.75;4996044;28;20514;-76
2022/05/26 11:11:40;;;;;;;13.90;6.00;;;;;;;22.60;53.34;93190.50;4971306;28;20057;-76
2022/05/26 11:17:21;;;;;;;17.42;6.80;;;;;;;22.72;55.48;93187.78;4976092;28;20034;-76
2022/05/26 11:17:21;;;;;;;17.00;7.07;;;;;;;22.54;53.72;93181.22;4976438;28;20038;-76
2022/05/26 11:20:02;;;;;;;20.88;7.70;;;;;;;22.64;55.42;93175.38;4993778;28;20038;-75
2022/05/26 11:22:28;;;;;;;12.98;6.50;;;;;;;22.87;51.80;93180.88;4993773;28;20121;-75
2022/05/26 11:24:57;;;;;;;15.50;6.47;;;;;;;22.83;52.49;93172.00;4993697;28;20057;-76
2022/05/26 11:27:54;;;;;;;14.88;6.32;;;;;;;23.02;53.10;93182.78;4976435;28;20038;-76
2022/05/26 11:36:45;;;;;;;14.90;6.20;;;;;;;23.35;48.68;93170.91;5008219;28;20040;-75
2022/05/26 11:39:21;;;;;;;12.05;5.40;;;;;;;23.37;48.41;93163.31;4994194;28;20049;-76
2022/05/26 11:42:01;;;;;;;22.02;10.02;;;;;;;23.53;47.69;93155.25;4994882;28;20515;-76
2022/05/26 11:44:50;;;;;;;10.50;4.65;;;;;;;23.45;48.74;93170.34;4978792;28;20030;-76
2022/05/26 11:47:34;;;;;;;12.88;5.18;;;;;;;23.53;48.47;93160.59;5002659;28;20117;-76
2022/05/26 11:50:05;;;;;;;11.25;6.00;;;;;;;23.64;48.06;93163.47;4960931;28;20432;-76
2022/05/26 11:52:34;;;;;;;15.35;7.00;;;;;;;23.58;49.12;93162.22;5013827;28;20180;-75
2022/05/26 11:55:18;;;;;;;12.50;7.13;;;;;;;23.46;50.95;93150.53;5013238;28;20030;-76
2022/05/26 11:57:43;;;;;;;10.38;5.22;;;;;;;23.44;50.06;93150.13;4992862;28;20395;-75
2022/05/26 12:00:15;;;;;;;12.35;5.18;;;;;;;23.42;48.16;93147.00;5001194;28;20037;-76
2022/05/26 12:02:41;;;;;;;;;;;;;;;23.59;46.38;93145.81;4995052;28;20049;-75
2022/05/26 12:05:28;;;;;;;14.13;7.00;;;;;;;23.27;50.43;93151.28;4996408;28;19913;-75
2022/05/26 12:08:04;;;;;;;13.82;6.30;;;;;;;23.10;49.40;93148.22;5009792;28;20030;-76
2022/05/26 12:10:39;;;;;;;14.93;5.80;;;;;;;22.83;47.30;93145.31;5011777;28;20026;-76
2022/05/26 12:13:25;;;;;;;17.02;8.48;;;;;;;22.95;49.67;93142.53;4994913;28;20112;-76
2022/05/26 12:16:15;;;;;;;15.77;6.72;;;;;;;22.56;51.14;93146.97;5007395;28;20038;-75
2022/05/26 12:18:47;;;;;;;18.52;6.43;;;;;;;22.53;51.07;93145.75;4991452;28;20042;-75
2022/05/26 12:21:17;;;;;;;21.02;7.38;;;;;;;22.89;51.82;93135.91;4993652;28;20036;-76
2022/05/26 12:23:43;;;;;;;14.02;6.78;;;;;;;22.74;50.16;93140.19;5008435;28;20045;-76
2022/05/26 12:26:45;;;;;;;12.10;6.63;;;;;;;22.91;51.17;93136.34;4994943;28;20030;-76
2022/05/26 12:29:44;;;;;;;18.35;7.40;;;;;;;23.49;52.63;93135.69;5002435;28;20026;-76
2022/05/26 12:32:23;;;;;;;12.43;7.40;;;;;;;23.52;52.88;93124.31;5000476;28;20112;-76